sensor_id;sensor_type;location;lat;lon;timestamp;P1;durP1;ratioP1;P2;durP2;ratioP2
25913;SDS011;13718;50.922;5.346;2022-12-18T00:00:29;139.05;;;39.55;;
25913;SDS011;13718;50.922;5.346;2022-12-18T00:02:55;131.68;;;39.38;;
25913;SDS011;13718;50.922;5.346;2022-12-18T00:05:21;144.10;;;39.17;;
25913;SDS011;13718;50.922;5.346;2022-12-18T00:07:46;137.65;;;38.95;;
25913;SDS011;13718;50.922;5.346;2022-12-18T00:10:12;139.95;;;39.67;;
25913;SDS011;13718;50.922;5.346;2022-12-18T00:12:38;135.80;;;38.33;;
25913;SDS011;13718;50.922;5.346;2022-12-18T00:15:03;144.85;;;39.67;;
25913;SDS011;13718;50.922;5.346;2022-12-18T00:17:29;141.55;;;39.13;;
25913;SDS011;13718;50.922;5.346;2022-12-18T00:19:55;136.30;;;39.45;;
25913;SDS011;13718;50.922;5.346;2022-12-18T00:22:20;135.25;;;40.45;;
25913;SDS011;13718;50.922;5.346;2022-12-18T00:24:46;146.50;;;39.65;;
25913;SDS011;13718;50.922;5.346;2022-12-18T00:27:11;146.60;;;41.33;;
25913;SDS011;13718;50.922;5.346;2022-12-18T00:29:37;145.60;;;40.88;;
25913;SDS011;13718;50.922;5.346;2022-12-18T00:32:06;155.63;;;42.05;;
25913;SDS011;13718;50.922;5.346;2022-12-18T00:34:31;136.15;;;38.85;;
25913;SDS011;13718;50.922;5.346;2022-12-18T00:36:57;137.15;;;38.70;;
25913;SDS011;13718;50.922;5.346;2022-12-18T00:39:22;140.88;;;39.80;;
25913;SDS011;13718;50.922;5.346;2022-12-18T00:41:48;137.02;;;39.08;;
25913;SDS011;13718;50.922;5.346;2022-12-18T00:44:32;128.50;;;38.20;;
25913;SDS011;13718;50.922;5.346;2022-12-18T00:46:58;131.88;;;39.47;;
25913;SDS011;13718;50.922;5.346;2022-12-18T00:49:23;141.27;;;37.70;;
25913;SDS011;13718;50.922;5.346;2022-12-18T00:51:49;143.43;;;39.97;;
25913;SDS011;13718;50.922;5.346;2022-12-18T00:54:15;142.25;;;38.28;;
25913;SDS011;13718;50.922;5.346;2022-12-18T00:56:41;137.85;;;38.20;;
25913;SDS011;13718;50.922;5.346;2022-12-18T00:59:07;133.32;;;39.17;;
25913;SDS011;13718;50.922;5.346;2022-12-18T01:01:33;143.70;;;42.20;;
25913;SDS011;13718;50.922;5.346;2022-12-18T01:04:00;133.02;;;36.85;;
25913;SDS011;13718;50.922;5.346;2022-12-18T01:06:26;142.30;;;39.72;;
25913;SDS011;13718;50.922;5.346;2022-12-18T01:08:52;148.18;;;40.95;;
25913;SDS011;13718;50.922;5.346;2022-12-18T01:11:19;127.50;;;38.92;;
25913;SDS011;13718;50.922;5.346;2022-12-18T01:13:45;139.40;;;39.65;;
25913;SDS011;13718;50.922;5.346;2022-12-18T01:16:15;141.45;;;40.03;;
25913;SDS011;13718;50.922;5.346;2022-12-18T01:18:42;143.73;;;40.83;;
25913;SDS011;13718;50.922;5.346;2022-12-18T01:21:08;138.25;;;39.35;;
25913;SDS011;13718;50.922;5.346;2022-12-18T01:23:36;130.60;;;36.60;;
25913;SDS011;13718;50.922;5.346;2022-12-18T01:26:06;132.38;;;37.15;;
25913;SDS011;13718;50.922;5.346;2022-12-18T01:28:36;128.05;;;36.95;;
25913;SDS011;13718;50.922;5.346;2022-12-18T01:31:09;124.43;;;36.92;;
25913;SDS011;13718;50.922;5.346;2022-12-18T01:33:40;127.32;;;35.67;;
25913;SDS011;13718;50.922;5.346;2022-12-18T01:36:06;124.28;;;38.15;;
25913;SDS011;13718;50.922;5.346;2022-12-18T01:38:32;126.55;;;37.63;;
25913;SDS011;13718;50.922;5.346;2022-12-18T01:41:01;131.75;;;37.22;;
25913;SDS011;13718;50.922;5.346;2022-12-18T01:43:47;126.28;;;37.00;;
25913;SDS011;13718;50.922;5.346;2022-12-18T01:46:13;128.48;;;37.67;;
25913;SDS011;13718;50.922;5.346;2022-12-18T01:48:39;121.40;;;37.38;;
25913;SDS011;13718;50.922;5.346;2022-12-18T01:51:06;129.48;;;37.13;;
25913;SDS011;13718;50.922;5.346;2022-12-18T01:53:33;124.65;;;38.28;;
25913;SDS011;13718;50.922;5.346;2022-12-18T01:55:59;129.10;;;37.05;;
25913;SDS011;13718;50.922;5.346;2022-12-18T02:01:15;116.20;;;36.67;;
25913;SDS011;13718;50.922;5.346;2022-12-18T02:03:42;124.68;;;36.33;;
25913;SDS011;13718;50.922;5.346;2022-12-18T02:13:50;124.20;;;36.00;;
25913;SDS011;13718;50.922;5.346;2022-12-18T02:27:19;118.53;;;34.65;;
25913;SDS011;13718;50.922;5.346;2022-12-18T02:29:49;121.03;;;35.97;;
25913;SDS011;13718;50.922;5.346;2022-12-18T02:32:19;118.95;;;36.08;;
25913;SDS011;13718;50.922;5.346;2022-12-18T02:34:49;115.07;;;35.25;;
25913;SDS011;13718;50.922;5.346;2022-12-18T02:37:17;116.40;;;37.10;;
25913;SDS011;13718;50.922;5.346;2022-12-18T02:39:46;124.75;;;34.67;;
25913;SDS011;13718;50.922;5.346;2022-12-18T02:42:13;127.82;;;35.88;;
25913;SDS011;13718;50.922;5.346;2022-12-18T02:44:43;119.35;;;34.28;;
25913;SDS011;13718;50.922;5.346;2022-12-18T02:47:15;86.65;;;26.38;;
25913;SDS011;13718;50.922;5.346;2022-12-18T02:59:58;100.88;;;33.45;;
25913;SDS011;13718;50.922;5.346;2022-12-18T03:05:01;96.30;;;30.98;;
25913;SDS011;13718;50.922;5.346;2022-12-18T03:07:39;111.13;;;30.80;;
25913;SDS011;13718;50.922;5.346;2022-12-18T03:10:14;101.65;;;30.40;;
25913;SDS011;13718;50.922;5.346;2022-12-18T03:12:45;109.67;;;30.10;;
25913;SDS011;13718;50.922;5.346;2022-12-18T03:15:20;103.95;;;29.98;;
25913;SDS011;13718;50.922;5.346;2022-12-18T03:17:55;95.80;;;29.88;;
25913;SDS011;13718;50.922;5.346;2022-12-18T03:20:33;98.90;;;27.48;;
25913;SDS011;13718;50.922;5.346;2022-12-18T03:23:04;94.43;;;28.77;;
25913;SDS011;13718;50.922;5.346;2022-12-18T03:25:34;91.63;;;26.10;;
25913;SDS011;13718;50.922;5.346;2022-12-18T03:28:04;85.82;;;28.05;;
25913;SDS011;13718;50.922;5.346;2022-12-18T03:30:33;84.63;;;27.98;;
25913;SDS011;13718;50.922;5.346;2022-12-18T03:33:08;82.70;;;27.17;;
25913;SDS011;13718;50.922;5.346;2022-12-18T03:35:39;84.03;;;26.65;;
25913;SDS011;13718;50.922;5.346;2022-12-18T03:38:06;93.35;;;28.25;;
25913;SDS011;13718;50.922;5.346;2022-12-18T03:40:56;86.68;;;26.33;;
25913;SDS011;13718;50.922;5.346;2022-12-18T03:46:05;89.43;;;27.17;;
25913;SDS011;13718;50.922;5.346;2022-12-18T03:48:52;81.32;;;25.75;;
25913;SDS011;13718;50.922;5.346;2022-12-18T03:51:27;81.25;;;26.50;;
25913;SDS011;13718;50.922;5.346;2022-12-18T03:53:58;88.60;;;26.85;;
25913;SDS011;13718;50.922;5.346;2022-12-18T03:56:26;82.82;;;27.27;;
25913;SDS011;13718;50.922;5.346;2022-12-18T03:58:55;84.07;;;26.50;;
25913;SDS011;13718;50.922;5.346;2022-12-18T04:01:24;86.28;;;26.90;;
25913;SDS011;13718;50.922;5.346;2022-12-18T04:04:00;93.90;;;27.13;;
25913;SDS011;13718;50.922;5.346;2022-12-18T04:06:27;85.20;;;26.92;;
25913;SDS011;13718;50.922;5.346;2022-12-18T04:08:54;95.32;;;28.23;;
25913;SDS011;13718;50.922;5.346;2022-12-18T04:11:22;91.82;;;26.73;;
25913;SDS011;13718;50.922;5.346;2022-12-18T04:13:48;92.07;;;27.20;;
25913;SDS011;13718;50.922;5.346;2022-12-18T04:16:14;92.18;;;27.52;;
25913;SDS011;13718;50.922;5.346;2022-12-18T04:18:39;83.32;;;25.95;;
25913;SDS011;13718;50.922;5.346;2022-12-18T04:21:05;84.50;;;25.30;;
25913;SDS011;13718;50.922;5.346;2022-12-18T04:23:30;89.88;;;27.50;;
25913;SDS011;13718;50.922;5.346;2022-12-18T04:25:56;90.43;;;27.00;;
25913;SDS011;13718;50.922;5.346;2022-12-18T04:28:22;85.35;;;26.40;;
25913;SDS011;13718;50.922;5.346;2022-12-18T04:30:47;87.05;;;28.95;;
25913;SDS011;13718;50.922;5.346;2022-12-18T04:33:13;97.65;;;27.83;;
25913;SDS011;13718;50.922;5.346;2022-12-18T04:35:42;91.88;;;27.80;;
25913;SDS011;13718;50.922;5.346;2022-12-18T04:38:08;83.68;;;26.10;;
25913;SDS011;13718;50.922;5.346;2022-12-18T04:40:35;85.68;;;25.52;;
25913;SDS011;13718;50.922;5.346;2022-12-18T04:43:01;85.88;;;25.35;;
25913;SDS011;13718;50.922;5.346;2022-12-18T04:45:27;85.10;;;24.58;;
25913;SDS011;13718;50.922;5.346;2022-12-18T04:47:54;89.53;;;27.50;;
25913;SDS011;13718;50.922;5.346;2022-12-18T04:50:22;87.38;;;26.33;;
25913;SDS011;13718;50.922;5.346;2022-12-18T04:52:48;78.97;;;24.75;;
25913;SDS011;13718;50.922;5.346;2022-12-18T04:55:14;79.75;;;25.48;;
25913;SDS011;13718;50.922;5.346;2022-12-18T04:57:39;72.07;;;24.67;;
25913;SDS011;13718;50.922;5.346;2022-12-18T05:00:05;85.55;;;26.40;;
25913;SDS011;13718;50.922;5.346;2022-12-18T05:02:31;77.32;;;25.60;;
25913;SDS011;13718;50.922;5.346;2022-12-18T05:04:57;77.25;;;24.83;;
25913;SDS011;13718;50.922;5.346;2022-12-18T05:07:23;76.45;;;25.45;;
25913;SDS011;13718;50.922;5.346;2022-12-18T05:09:48;79.45;;;25.25;;
25913;SDS011;13718;50.922;5.346;2022-12-18T05:12:14;82.15;;;25.67;;
25913;SDS011;13718;50.922;5.346;2022-12-18T05:14:40;85.82;;;26.73;;
25913;SDS011;13718;50.922;5.346;2022-12-18T05:17:05;83.95;;;25.58;;
25913;SDS011;13718;50.922;5.346;2022-12-18T05:19:31;90.78;;;26.55;;
25913;SDS011;13718;50.922;5.346;2022-12-18T05:21:57;78.07;;;25.63;;
25913;SDS011;13718;50.922;5.346;2022-12-18T05:24:23;75.13;;;23.65;;
25913;SDS011;13718;50.922;5.346;2022-12-18T05:26:48;79.85;;;25.10;;
25913;SDS011;13718;50.922;5.346;2022-12-18T05:29:14;77.72;;;24.35;;
25913;SDS011;13718;50.922;5.346;2022-12-18T05:31:40;76.88;;;24.95;;
25913;SDS011;13718;50.922;5.346;2022-12-18T05:34:05;74.50;;;23.13;;
25913;SDS011;13718;50.922;5.346;2022-12-18T05:36:31;76.28;;;24.27;;
25913;SDS011;13718;50.922;5.346;2022-12-18T05:38:57;73.63;;;23.65;;
25913;SDS011;13718;50.922;5.346;2022-12-18T05:41:22;82.45;;;24.52;;
25913;SDS011;13718;50.922;5.346;2022-12-18T05:43:48;77.85;;;24.02;;
25913;SDS011;13718;50.922;5.346;2022-12-18T05:46:15;76.75;;;24.30;;
25913;SDS011;13718;50.922;5.346;2022-12-18T05:48:42;72.03;;;23.85;;
25913;SDS011;13718;50.922;5.346;2022-12-18T05:51:13;82.60;;;24.48;;
25913;SDS011;13718;50.922;5.346;2022-12-18T05:53:40;70.78;;;23.02;;
25913;SDS011;13718;50.922;5.346;2022-12-18T05:56:08;79.72;;;24.88;;
25913;SDS011;13718;50.922;5.346;2022-12-18T05:58:36;64.68;;;22.90;;
25913;SDS011;13718;50.922;5.346;2022-12-18T06:01:10;71.78;;;24.60;;
25913;SDS011;13718;50.922;5.346;2022-12-18T06:03:42;68.82;;;22.23;;
25913;SDS011;13718;50.922;5.346;2022-12-18T06:06:18;66.07;;;22.50;;
25913;SDS011;13718;50.922;5.346;2022-12-18T06:08:47;66.47;;;22.50;;
25913;SDS011;13718;50.922;5.346;2022-12-18T06:11:15;64.85;;;20.52;;
25913;SDS011;13718;50.922;5.346;2022-12-18T06:13:43;75.55;;;22.15;;
25913;SDS011;13718;50.922;5.346;2022-12-18T06:16:08;66.47;;;21.33;;
25913;SDS011;13718;50.922;5.346;2022-12-18T06:18:34;59.78;;;20.88;;
25913;SDS011;13718;50.922;5.346;2022-12-18T06:21:02;60.90;;;20.02;;
25913;SDS011;13718;50.922;5.346;2022-12-18T06:23:28;64.85;;;20.35;;
25913;SDS011;13718;50.922;5.346;2022-12-18T06:25:54;59.55;;;19.38;;
25913;SDS011;13718;50.922;5.346;2022-12-18T06:28:20;55.13;;;18.48;;
25913;SDS011;13718;50.922;5.346;2022-12-18T06:30:46;59.40;;;19.33;;
25913;SDS011;13718;50.922;5.346;2022-12-18T06:33:13;56.25;;;18.55;;
25913;SDS011;13718;50.922;5.346;2022-12-18T06:35:40;57.47;;;19.25;;
25913;SDS011;13718;50.922;5.346;2022-12-18T06:38:06;57.50;;;17.85;;
25913;SDS011;13718;50.922;5.346;2022-12-18T06:40:31;51.70;;;17.80;;
25913;SDS011;13718;50.922;5.346;2022-12-18T06:42:57;49.83;;;16.75;;
25913;SDS011;13718;50.922;5.346;2022-12-18T06:45:23;51.15;;;16.60;;
25913;SDS011;13718;50.922;5.346;2022-12-18T06:47:49;51.70;;;17.25;;
25913;SDS011;13718;50.922;5.346;2022-12-18T06:50:15;60.92;;;19.30;;
25913;SDS011;13718;50.922;5.346;2022-12-18T06:52:41;58.45;;;18.08;;
25913;SDS011;13718;50.922;5.346;2022-12-18T06:55:09;51.90;;;17.73;;
25913;SDS011;13718;50.922;5.346;2022-12-18T06:57:35;46.33;;;17.83;;
25913;SDS011;13718;50.922;5.346;2022-12-18T07:00:00;53.78;;;16.83;;
25913;SDS011;13718;50.922;5.346;2022-12-18T07:02:26;52.35;;;18.08;;
25913;SDS011;13718;50.922;5.346;2022-12-18T07:04:51;53.25;;;16.75;;
25913;SDS011;13718;50.922;5.346;2022-12-18T07:07:17;47.28;;;16.63;;
25913;SDS011;13718;50.922;5.346;2022-12-18T07:09:43;51.08;;;17.20;;
25913;SDS011;13718;50.922;5.346;2022-12-18T07:12:08;56.05;;;17.52;;
25913;SDS011;13718;50.922;5.346;2022-12-18T07:14:34;47.47;;;15.98;;
25913;SDS011;13718;50.922;5.346;2022-12-18T07:17:00;48.53;;;16.20;;
25913;SDS011;13718;50.922;5.346;2022-12-18T07:19:25;44.13;;;16.20;;
25913;SDS011;13718;50.922;5.346;2022-12-18T07:21:51;40.50;;;15.93;;
25913;SDS011;13718;50.922;5.346;2022-12-18T07:24:17;47.65;;;16.70;;
25913;SDS011;13718;50.922;5.346;2022-12-18T07:26:42;42.85;;;16.17;;
25913;SDS011;13718;50.922;5.346;2022-12-18T07:29:11;48.90;;;17.90;;
25913;SDS011;13718;50.922;5.346;2022-12-18T07:31:37;51.28;;;16.40;;
25913;SDS011;13718;50.922;5.346;2022-12-18T07:34:02;43.83;;;16.73;;
25913;SDS011;13718;50.922;5.346;2022-12-18T07:36:28;48.03;;;17.40;;
25913;SDS011;13718;50.922;5.346;2022-12-18T07:38:54;50.85;;;16.90;;
25913;SDS011;13718;50.922;5.346;2022-12-18T07:41:20;46.50;;;16.50;;
25913;SDS011;13718;50.922;5.346;2022-12-18T07:43:46;49.47;;;17.77;;
25913;SDS011;13718;50.922;5.346;2022-12-18T07:46:12;44.00;;;15.32;;
25913;SDS011;13718;50.922;5.346;2022-12-18T07:48:41;51.17;;;17.02;;
25913;SDS011;13718;50.922;5.346;2022-12-18T07:51:08;47.55;;;16.35;;
25913;SDS011;13718;50.922;5.346;2022-12-18T07:53:38;44.17;;;15.77;;
25913;SDS011;13718;50.922;5.346;2022-12-18T07:56:05;42.83;;;15.23;;
25913;SDS011;13718;50.922;5.346;2022-12-18T07:58:32;44.72;;;14.98;;
25913;SDS011;13718;50.922;5.346;2022-12-18T08:01:08;43.35;;;14.98;;
25913;SDS011;13718;50.922;5.346;2022-12-18T08:03:36;41.20;;;15.30;;
25913;SDS011;13718;50.922;5.346;2022-12-18T08:06:02;42.70;;;16.20;;
25913;SDS011;13718;50.922;5.346;2022-12-18T08:08:29;39.42;;;14.05;;
25913;SDS011;13718;50.922;5.346;2022-12-18T08:10:56;43.35;;;14.05;;
25913;SDS011;13718;50.922;5.346;2022-12-18T08:13:22;43.45;;;15.38;;
25913;SDS011;13718;50.922;5.346;2022-12-18T08:16:06;37.30;;;13.95;;
25913;SDS011;13718;50.922;5.346;2022-12-18T08:18:32;40.95;;;14.80;;
25913;SDS011;13718;50.922;5.346;2022-12-18T08:21:09;39.95;;;14.43;;
25913;SDS011;13718;50.922;5.346;2022-12-18T08:23:36;37.58;;;13.98;;
25913;SDS011;13718;50.922;5.346;2022-12-18T08:26:02;41.60;;;15.10;;
25913;SDS011;13718;50.922;5.346;2022-12-18T08:28:27;48.97;;;15.82;;
25913;SDS011;13718;50.922;5.346;2022-12-18T08:30:53;42.00;;;14.98;;
25913;SDS011;13718;50.922;5.346;2022-12-18T08:33:19;42.47;;;15.43;;
25913;SDS011;13718;50.922;5.346;2022-12-18T08:35:44;39.25;;;15.38;;
25913;SDS011;13718;50.922;5.346;2022-12-18T08:38:10;42.17;;;15.32;;
25913;SDS011;13718;50.922;5.346;2022-12-18T08:40:35;43.95;;;14.40;;
25913;SDS011;13718;50.922;5.346;2022-12-18T08:43:01;37.55;;;13.55;;
25913;SDS011;13718;50.922;5.346;2022-12-18T08:45:45;42.42;;;14.43;;
25913;SDS011;13718;50.922;5.346;2022-12-18T08:48:11;40.13;;;13.95;;
25913;SDS011;13718;50.922;5.346;2022-12-18T08:50:36;39.70;;;14.38;;
25913;SDS011;13718;50.922;5.346;2022-12-18T08:53:02;41.78;;;14.85;;
25913;SDS011;13718;50.922;5.346;2022-12-18T08:55:28;41.50;;;14.80;;
25913;SDS011;13718;50.922;5.346;2022-12-18T08:57:53;43.47;;;15.95;;
25913;SDS011;13718;50.922;5.346;2022-12-18T09:00:19;36.00;;;15.18;;
25913;SDS011;13718;50.922;5.346;2022-12-18T09:02:45;42.63;;;15.52;;
25913;SDS011;13718;50.922;5.346;2022-12-18T09:05:11;45.30;;;16.02;;
25913;SDS011;13718;50.922;5.346;2022-12-18T09:07:36;46.08;;;15.60;;
25913;SDS011;13718;50.922;5.346;2022-12-18T09:10:02;39.17;;;14.52;;
25913;SDS011;13718;50.922;5.346;2022-12-18T09:12:28;39.20;;;15.02;;
25913;SDS011;13718;50.922;5.346;2022-12-18T09:14:54;39.45;;;15.05;;
25913;SDS011;13718;50.922;5.346;2022-12-18T09:17:21;43.42;;;15.55;;
25913;SDS011;13718;50.922;5.346;2022-12-18T09:19:47;42.78;;;14.98;;
25913;SDS011;13718;50.922;5.346;2022-12-18T09:22:12;36.72;;;14.70;;
25913;SDS011;13718;50.922;5.346;2022-12-18T09:24:38;37.90;;;15.10;;
25913;SDS011;13718;50.922;5.346;2022-12-18T09:27:04;43.50;;;14.68;;
25913;SDS011;13718;50.922;5.346;2022-12-18T09:29:29;39.42;;;14.57;;
25913;SDS011;13718;50.922;5.346;2022-12-18T09:31:55;46.00;;;15.10;;
25913;SDS011;13718;50.922;5.346;2022-12-18T09:34:21;35.42;;;13.85;;
25913;SDS011;13718;50.922;5.346;2022-12-18T09:36:47;38.55;;;14.25;;
25913;SDS011;13718;50.922;5.346;2022-12-18T09:39:13;38.40;;;14.50;;
25913;SDS011;13718;50.922;5.346;2022-12-18T09:41:52;33.65;;;13.27;;
25913;SDS011;13718;50.922;5.346;2022-12-18T09:44:34;37.25;;;14.13;;
25913;SDS011;13718;50.922;5.346;2022-12-18T09:49:48;35.80;;;14.98;;
25913;SDS011;13718;50.922;5.346;2022-12-18T09:54:56;33.92;;;13.45;;
25913;SDS011;13718;50.922;5.346;2022-12-18T09:57:31;37.75;;;14.20;;
25913;SDS011;13718;50.922;5.346;2022-12-18T10:00:03;37.33;;;13.98;;
25913;SDS011;13718;50.922;5.346;2022-12-18T10:02:34;35.63;;;13.30;;
25913;SDS011;13718;50.922;5.346;2022-12-18T10:05:24;36.10;;;14.15;;
25913;SDS011;13718;50.922;5.346;2022-12-18T10:19:04;39.28;;;14.18;;
25913;SDS011;13718;50.922;5.346;2022-12-18T10:21:45;43.15;;;15.45;;
25913;SDS011;13718;50.922;5.346;2022-12-18T10:26:59;36.67;;;14.68;;
25913;SDS011;13718;50.922;5.346;2022-12-18T10:29:36;33.08;;;13.50;;
25913;SDS011;13718;50.922;5.346;2022-12-18T10:32:02;37.60;;;14.57;;
25913;SDS011;13718;50.922;5.346;2022-12-18T10:34:28;40.05;;;14.40;;
25913;SDS011;13718;50.922;5.346;2022-12-18T10:36:54;32.90;;;14.02;;
25913;SDS011;13718;50.922;5.346;2022-12-18T10:39:20;40.67;;;15.68;;
25913;SDS011;13718;50.922;5.346;2022-12-18T10:41:48;32.85;;;14.68;;
25913;SDS011;13718;50.922;5.346;2022-12-18T10:44:19;36.72;;;15.48;;
25913;SDS011;13718;50.922;5.346;2022-12-18T10:46:47;40.10;;;15.85;;
25913;SDS011;13718;50.922;5.346;2022-12-18T10:49:19;39.00;;;16.42;;
25913;SDS011;13718;50.922;5.346;2022-12-18T10:51:49;35.70;;;14.88;;
25913;SDS011;13718;50.922;5.346;2022-12-18T10:54:21;33.95;;;15.13;;
25913;SDS011;13718;50.922;5.346;2022-12-18T10:56:47;37.67;;;16.27;;
25913;SDS011;13718;50.922;5.346;2022-12-18T10:59:15;37.10;;;15.43;;
25913;SDS011;13718;50.922;5.346;2022-12-18T11:01:52;38.13;;;15.98;;
25913;SDS011;13718;50.922;5.346;2022-12-18T11:04:23;32.33;;;14.35;;
25913;SDS011;13718;50.922;5.346;2022-12-18T11:11:57;37.45;;;15.10;;
25913;SDS011;13718;50.922;5.346;2022-12-18T11:14:41;38.33;;;14.85;;
25913;SDS011;13718;50.922;5.346;2022-12-18T11:20:05;37.15;;;14.07;;
25913;SDS011;13718;50.922;5.346;2022-12-18T11:22:44;43.58;;;14.52;;
25913;SDS011;13718;50.922;5.346;2022-12-18T11:25:24;33.83;;;13.93;;
25913;SDS011;13718;50.922;5.346;2022-12-18T11:27:56;39.03;;;14.50;;
25913;SDS011;13718;50.922;5.346;2022-12-18T11:30:28;33.33;;;14.18;;
25913;SDS011;13718;50.922;5.346;2022-12-18T11:33:15;37.90;;;15.15;;
25913;SDS011;13718;50.922;5.346;2022-12-18T11:41:00;34.78;;;14.32;;
25913;SDS011;13718;50.922;5.346;2022-12-18T11:43:48;35.80;;;16.02;;
25913;SDS011;13718;50.922;5.346;2022-12-18T11:46:26;35.85;;;14.90;;
25913;SDS011;13718;50.922;5.346;2022-12-18T11:48:58;34.15;;;14.05;;
25913;SDS011;13718;50.922;5.346;2022-12-18T11:51:35;35.83;;;15.00;;
25913;SDS011;13718;50.922;5.346;2022-12-18T11:54:14;35.95;;;15.55;;
25913;SDS011;13718;50.922;5.346;2022-12-18T11:56:58;37.05;;;14.98;;
25913;SDS011;13718;50.922;5.346;2022-12-18T11:59:40;37.58;;;15.50;;
25913;SDS011;13718;50.922;5.346;2022-12-18T12:05:38;35.63;;;15.15;;
25913;SDS011;13718;50.922;5.346;2022-12-18T12:08:32;35.28;;;14.85;;
25913;SDS011;13718;50.922;5.346;2022-12-18T12:16:22;33.72;;;14.52;;
25913;SDS011;13718;50.922;5.346;2022-12-18T12:35:25;43.95;;;15.45;;
25913;SDS011;13718;50.922;5.346;2022-12-18T12:38:18;38.70;;;14.10;;
25913;SDS011;13718;50.922;5.346;2022-12-18T12:40:46;33.70;;;14.23;;
25913;SDS011;13718;50.922;5.346;2022-12-18T12:43:43;39.58;;;15.88;;
25913;SDS011;13718;50.922;5.346;2022-12-18T12:46:13;37.95;;;14.70;;
25913;SDS011;13718;50.922;5.346;2022-12-18T12:48:46;33.03;;;14.73;;
25913;SDS011;13718;50.922;5.346;2022-12-18T12:51:37;37.85;;;15.10;;
25913;SDS011;13718;50.922;5.346;2022-12-18T12:54:06;34.95;;;15.23;;
25913;SDS011;13718;50.922;5.346;2022-12-18T12:56:43;41.85;;;16.17;;
25913;SDS011;13718;50.922;5.346;2022-12-18T13:02:21;37.03;;;15.45;;
25913;SDS011;13718;50.922;5.346;2022-12-18T13:07:40;39.03;;;16.02;;
25913;SDS011;13718;50.922;5.346;2022-12-18T13:10:12;38.10;;;16.48;;
25913;SDS011;13718;50.922;5.346;2022-12-18T13:15:33;41.47;;;16.92;;
25913;SDS011;13718;50.922;5.346;2022-12-18T13:20:40;40.13;;;16.77;;
25913;SDS011;13718;50.922;5.346;2022-12-18T13:23:28;36.85;;;16.60;;
25913;SDS011;13718;50.922;5.346;2022-12-18T13:31:11;34.13;;;15.32;;
25913;SDS011;13718;50.922;5.346;2022-12-18T13:33:38;41.40;;;16.95;;
25913;SDS011;13718;50.922;5.346;2022-12-18T13:36:25;39.30;;;17.35;;
25913;SDS011;13718;50.922;5.346;2022-12-18T13:41:38;39.92;;;16.85;;
25913;SDS011;13718;50.922;5.346;2022-12-18T13:44:11;38.85;;;16.30;;
25913;SDS011;13718;50.922;5.346;2022-12-18T13:46:58;34.80;;;15.68;;
25913;SDS011;13718;50.922;5.346;2022-12-18T13:49:31;40.05;;;17.08;;
25913;SDS011;13718;50.922;5.346;2022-12-18T13:52:16;41.90;;;16.48;;
25913;SDS011;13718;50.922;5.346;2022-12-18T13:54:56;35.92;;;16.75;;
25913;SDS011;13718;50.922;5.346;2022-12-18T13:59:53;43.25;;;18.70;;
25913;SDS011;13718;50.922;5.346;2022-12-18T14:02:26;40.70;;;18.55;;
25913;SDS011;13718;50.922;5.346;2022-12-18T14:04:53;42.75;;;18.48;;
25913;SDS011;13718;50.922;5.346;2022-12-18T14:07:20;44.15;;;19.00;;
25913;SDS011;13718;50.922;5.346;2022-12-18T14:09:50;47.03;;;20.02;;
25913;SDS011;13718;50.922;5.346;2022-12-18T14:12:32;45.35;;;19.65;;
25913;SDS011;13718;50.922;5.346;2022-12-18T14:20:43;42.47;;;19.23;;
25913;SDS011;13718;50.922;5.346;2022-12-18T14:26:01;46.17;;;19.20;;
25913;SDS011;13718;50.922;5.346;2022-12-18T14:28:28;49.13;;;19.80;;
25913;SDS011;13718;50.922;5.346;2022-12-18T14:30:54;44.28;;;19.98;;
25913;SDS011;13718;50.922;5.346;2022-12-18T14:33:21;47.20;;;19.13;;
25913;SDS011;13718;50.922;5.346;2022-12-18T14:35:59;44.78;;;19.48;;
25913;SDS011;13718;50.922;5.346;2022-12-18T14:38:37;42.40;;;18.55;;
25913;SDS011;13718;50.922;5.346;2022-12-18T14:41:10;48.35;;;18.50;;
25913;SDS011;13718;50.922;5.346;2022-12-18T14:43:38;43.00;;;19.17;;
25913;SDS011;13718;50.922;5.346;2022-12-18T14:46:50;52.65;;;19.73;;
25913;SDS011;13718;50.922;5.346;2022-12-18T14:48:51;45.58;;;18.52;;
25913;SDS011;13718;50.922;5.346;2022-12-18T14:51:21;42.53;;;19.02;;
25913;SDS011;13718;50.922;5.346;2022-12-18T14:56:25;44.92;;;18.83;;
25913;SDS011;13718;50.922;5.346;2022-12-18T14:58:53;40.60;;;17.52;;
25913;SDS011;13718;50.922;5.346;2022-12-18T15:01:22;45.17;;;18.40;;
25913;SDS011;13718;50.922;5.346;2022-12-18T15:04:02;42.40;;;18.38;;
25913;SDS011;13718;50.922;5.346;2022-12-18T15:08:57;45.40;;;18.65;;
25913;SDS011;13718;50.922;5.346;2022-12-18T15:11:32;44.90;;;18.77;;
25913;SDS011;13718;50.922;5.346;2022-12-18T15:17:15;44.35;;;18.63;;
25913;SDS011;13718;50.922;5.346;2022-12-18T15:19:44;45.30;;;18.67;;
25913;SDS011;13718;50.922;5.346;2022-12-18T15:22:15;47.45;;;19.42;;
25913;SDS011;13718;50.922;5.346;2022-12-18T15:24:54;45.90;;;19.38;;
25913;SDS011;13718;50.922;5.346;2022-12-18T15:27:31;49.45;;;20.25;;
25913;SDS011;13718;50.922;5.346;2022-12-18T15:35:02;50.35;;;19.48;;
25913;SDS011;13718;50.922;5.346;2022-12-18T15:37:38;44.83;;;20.23;;
25913;SDS011;13718;50.922;5.346;2022-12-18T15:40:07;45.95;;;19.08;;
25913;SDS011;13718;50.922;5.346;2022-12-18T15:42:36;49.50;;;20.10;;
25913;SDS011;13718;50.922;5.346;2022-12-18T15:45:20;48.30;;;19.88;;
25913;SDS011;13718;50.922;5.346;2022-12-18T15:47:46;50.15;;;21.23;;
25913;SDS011;13718;50.922;5.346;2022-12-18T15:50:12;46.45;;;20.63;;
25913;SDS011;13718;50.922;5.346;2022-12-18T15:52:41;46.95;;;20.55;;
25913;SDS011;13718;50.922;5.346;2022-12-18T15:55:16;46.60;;;20.17;;
25913;SDS011;13718;50.922;5.346;2022-12-18T15:58:03;45.53;;;19.70;;
25913;SDS011;13718;50.922;5.346;2022-12-18T16:00:29;51.85;;;22.30;;
25913;SDS011;13718;50.922;5.346;2022-12-18T16:02:55;54.63;;;21.60;;
25913;SDS011;13718;50.922;5.346;2022-12-18T16:05:20;48.83;;;21.58;;
25913;SDS011;13718;50.922;5.346;2022-12-18T16:07:48;54.00;;;22.50;;
25913;SDS011;13718;50.922;5.346;2022-12-18T16:10:13;51.30;;;21.77;;
25913;SDS011;13718;50.922;5.346;2022-12-18T16:12:39;60.95;;;22.40;;
25913;SDS011;13718;50.922;5.346;2022-12-18T16:15:06;50.55;;;20.42;;
25913;SDS011;13718;50.922;5.346;2022-12-18T16:17:32;54.85;;;21.73;;
25913;SDS011;13718;50.922;5.346;2022-12-18T16:19:58;61.17;;;21.40;;
25913;SDS011;13718;50.922;5.346;2022-12-18T16:22:25;53.67;;;20.02;;
25913;SDS011;13718;50.922;5.346;2022-12-18T16:24:53;52.53;;;20.08;;
25913;SDS011;13718;50.922;5.346;2022-12-18T16:27:20;49.15;;;20.30;;
25913;SDS011;13718;50.922;5.346;2022-12-18T16:29:46;49.10;;;19.67;;
25913;SDS011;13718;50.922;5.346;2022-12-18T16:32:13;50.63;;;20.52;;
25913;SDS011;13718;50.922;5.346;2022-12-18T16:34:41;55.53;;;20.65;;
25913;SDS011;13718;50.922;5.346;2022-12-18T16:37:07;51.63;;;20.92;;
25913;SDS011;13718;50.922;5.346;2022-12-18T16:39:34;51.65;;;21.33;;
25913;SDS011;13718;50.922;5.346;2022-12-18T16:42:02;49.67;;;20.92;;
25913;SDS011;13718;50.922;5.346;2022-12-18T16:44:29;45.80;;;19.50;;
25913;SDS011;13718;50.922;5.346;2022-12-18T16:46:55;47.53;;;20.88;;
25913;SDS011;13718;50.922;5.346;2022-12-18T16:49:26;52.83;;;21.52;;